sensor_id;sensor_type;location;lat;lon;timestamp;P1;durP1;ratioP1;P2;durP2;ratioP2
36373;SDS011;22399;51.346;12.372;2023-08-06T00:01:20;5.55;;;2.65;;
36373;SDS011;22399;51.346;12.372;2023-08-06T00:03:49;3.97;;;1.80;;
36373;SDS011;22399;51.346;12.372;2023-08-06T00:06:18;5.18;;;2.30;;
36373;SDS011;22399;51.346;12.372;2023-08-06T00:08:46;5.85;;;2.35;;
36373;SDS011;22399;51.346;12.372;2023-08-06T00:11:15;5.25;;;2.30;;
36373;SDS011;22399;51.346;12.372;2023-08-06T00:13:44;4.82;;;2.13;;
36373;SDS011;22399;51.346;12.372;2023-08-06T00:16:13;4.15;;;2.30;;
36373;SDS011;22399;51.346;12.372;2023-08-06T00:18:43;5.20;;;2.22;;
36373;SDS011;22399;51.346;12.372;2023-08-06T00:21:12;8.55;;;2.95;;
36373;SDS011;22399;51.346;12.372;2023-08-06T00:23:41;4.00;;;2.15;;
36373;SDS011;22399;51.346;12.372;2023-08-06T00:26:10;8.48;;;2.17;;
36373;SDS011;22399;51.346;12.372;2023-08-06T00:28:38;6.05;;;2.08;;
36373;SDS011;22399;51.346;12.372;2023-08-06T00:31:07;5.75;;;2.65;;
36373;SDS011;22399;51.346;12.372;2023-08-06T00:33:35;8.07;;;2.20;;
36373;SDS011;22399;51.346;12.372;2023-08-06T00:36:05;4.60;;;2.65;;
36373;SDS011;22399;51.346;12.372;2023-08-06T00:38:34;6.38;;;2.58;;
36373;SDS011;22399;51.346;12.372;2023-08-06T00:41:02;7.88;;;2.50;;
36373;SDS011;22399;51.346;12.372;2023-08-06T00:43:31;16.20;;;3.03;;
36373;SDS011;22399;51.346;12.372;2023-08-06T00:46:00;12.02;;;2.72;;
36373;SDS011;22399;51.346;12.372;2023-08-06T00:48:29;5.32;;;2.47;;
36373;SDS011;22399;51.346;12.372;2023-08-06T00:50:58;7.47;;;2.65;;
36373;SDS011;22399;51.346;12.372;2023-08-06T00:53:28;12.93;;;2.60;;
36373;SDS011;22399;51.346;12.372;2023-08-06T00:55:57;5.90;;;2.20;;
36373;SDS011;22399;51.346;12.372;2023-08-06T00:58:26;5.63;;;2.25;;
36373;SDS011;22399;51.346;12.372;2023-08-06T01:00:55;13.48;;;2.97;;
36373;SDS011;22399;51.346;12.372;2023-08-06T01:03:23;10.45;;;3.10;;
36373;SDS011;22399;51.346;12.372;2023-08-06T01:05:52;6.20;;;2.80;;
36373;SDS011;22399;51.346;12.372;2023-08-06T01:08:24;5.68;;;2.10;;
36373;SDS011;22399;51.346;12.372;2023-08-06T01:11:08;3.35;;;1.92;;
36373;SDS011;22399;51.346;12.372;2023-08-06T01:13:46;6.45;;;2.80;;
36373;SDS011;22399;51.346;12.372;2023-08-06T01:16:18;6.25;;;3.17;;
36373;SDS011;22399;51.346;12.372;2023-08-06T01:18:48;4.95;;;2.78;;
36373;SDS011;22399;51.346;12.372;2023-08-06T01:21:18;7.50;;;2.85;;
36373;SDS011;22399;51.346;12.372;2023-08-06T01:23:47;5.63;;;2.90;;
36373;SDS011;22399;51.346;12.372;2023-08-06T01:26:18;6.65;;;3.03;;
36373;SDS011;22399;51.346;12.372;2023-08-06T01:28:53;8.77;;;2.67;;
36373;SDS011;22399;51.346;12.372;2023-08-06T01:33:58;6.15;;;2.70;;
36373;SDS011;22399;51.346;12.372;2023-08-06T01:36:30;4.35;;;2.08;;
36373;SDS011;22399;51.346;12.372;2023-08-06T01:38:59;6.05;;;2.60;;
36373;SDS011;22399;51.346;12.372;2023-08-06T01:41:28;4.68;;;2.67;;
36373;SDS011;22399;51.346;12.372;2023-08-06T01:43:56;5.68;;;2.17;;
36373;SDS011;22399;51.346;12.372;2023-08-06T01:46:25;6.68;;;2.90;;
36373;SDS011;22399;51.346;12.372;2023-08-06T01:48:54;4.38;;;2.15;;
36373;SDS011;22399;51.346;12.372;2023-08-06T01:51:22;7.32;;;2.33;;
36373;SDS011;22399;51.346;12.372;2023-08-06T01:53:52;6.82;;;2.88;;
36373;SDS011;22399;51.346;12.372;2023-08-06T01:56:20;7.05;;;2.55;;
36373;SDS011;22399;51.346;12.372;2023-08-06T01:58:49;4.85;;;2.30;;
36373;SDS011;22399;51.346;12.372;2023-08-06T02:01:17;6.68;;;2.85;;
36373;SDS011;22399;51.346;12.372;2023-08-06T02:03:46;4.80;;;2.63;;
36373;SDS011;22399;51.346;12.372;2023-08-06T02:06:15;4.85;;;2.50;;
36373;SDS011;22399;51.346;12.372;2023-08-06T02:08:44;9.63;;;2.85;;
36373;SDS011;22399;51.346;12.372;2023-08-06T02:11:15;10.48;;;2.85;;
36373;SDS011;22399;51.346;12.372;2023-08-06T02:13:45;4.47;;;2.40;;
36373;SDS011;22399;51.346;12.372;2023-08-06T02:16:17;5.18;;;2.50;;
36373;SDS011;22399;51.346;12.372;2023-08-06T02:18:46;8.70;;;2.22;;
36373;SDS011;22399;51.346;12.372;2023-08-06T02:21:14;11.85;;;2.92;;
36373;SDS011;22399;51.346;12.372;2023-08-06T02:23:43;7.82;;;2.75;;
36373;SDS011;22399;51.346;12.372;2023-08-06T02:26:11;4.47;;;2.58;;
36373;SDS011;22399;51.346;12.372;2023-08-06T02:28:41;5.68;;;2.75;;
36373;SDS011;22399;51.346;12.372;2023-08-06T02:31:12;11.32;;;2.90;;
36373;SDS011;22399;51.346;12.372;2023-08-06T02:33:40;12.18;;;3.58;;
36373;SDS011;22399;51.346;12.372;2023-08-06T02:36:09;6.82;;;2.75;;
36373;SDS011;22399;51.346;12.372;2023-08-06T02:38:38;5.75;;;2.47;;
36373;SDS011;22399;51.346;12.372;2023-08-06T02:41:06;4.18;;;2.33;;
36373;SDS011;22399;51.346;12.372;2023-08-06T02:43:35;6.45;;;3.03;;
36373;SDS011;22399;51.346;12.372;2023-08-06T02:46:05;9.65;;;3.17;;
36373;SDS011;22399;51.346;12.372;2023-08-06T02:48:34;7.90;;;3.15;;
36373;SDS011;22399;51.346;12.372;2023-08-06T02:51:03;7.70;;;3.45;;
36373;SDS011;22399;51.346;12.372;2023-08-06T02:53:32;10.68;;;3.85;;
36373;SDS011;22399;51.346;12.372;2023-08-06T02:56:05;6.55;;;3.17;;
36373;SDS011;22399;51.346;12.372;2023-08-06T02:58:45;6.00;;;2.88;;
36373;SDS011;22399;51.346;12.372;2023-08-06T03:01:28;6.10;;;2.78;;
36373;SDS011;22399;51.346;12.372;2023-08-06T03:04:03;4.75;;;2.35;;
36373;SDS011;22399;51.346;12.372;2023-08-06T03:06:37;10.90;;;3.53;;
36373;SDS011;22399;51.346;12.372;2023-08-06T03:09:06;5.30;;;2.70;;
36373;SDS011;22399;51.346;12.372;2023-08-06T03:11:34;5.82;;;2.47;;
36373;SDS011;22399;51.346;12.372;2023-08-06T03:14:07;11.48;;;2.60;;
36373;SDS011;22399;51.346;12.372;2023-08-06T03:16:39;22.35;;;3.20;;
36373;SDS011;22399;51.346;12.372;2023-08-06T03:19:07;5.20;;;3.03;;
36373;SDS011;22399;51.346;12.372;2023-08-06T03:21:36;9.80;;;3.00;;
36373;SDS011;22399;51.346;12.372;2023-08-06T03:24:05;10.02;;;2.58;;
36373;SDS011;22399;51.346;12.372;2023-08-06T03:26:35;11.15;;;2.88;;
36373;SDS011;22399;51.346;12.372;2023-08-06T03:29:04;6.00;;;3.20;;
36373;SDS011;22399;51.346;12.372;2023-08-06T03:31:34;6.57;;;3.08;;
36373;SDS011;22399;51.346;12.372;2023-08-06T03:34:04;20.73;;;4.20;;
36373;SDS011;22399;51.346;12.372;2023-08-06T03:36:34;7.68;;;3.05;;
36373;SDS011;22399;51.346;12.372;2023-08-06T03:39:02;9.23;;;3.50;;
36373;SDS011;22399;51.346;12.372;2023-08-06T03:41:31;8.43;;;3.03;;
36373;SDS011;22399;51.346;12.372;2023-08-06T03:44:00;6.15;;;3.08;;
36373;SDS011;22399;51.346;12.372;2023-08-06T03:46:30;5.35;;;2.88;;
36373;SDS011;22399;51.346;12.372;2023-08-06T03:49:04;8.38;;;3.20;;
36373;SDS011;22399;51.346;12.372;2023-08-06T03:51:33;5.97;;;2.90;;
36373;SDS011;22399;51.346;12.372;2023-08-06T03:54:02;6.63;;;3.60;;
36373;SDS011;22399;51.346;12.372;2023-08-06T03:56:30;9.95;;;3.17;;
36373;SDS011;22399;51.346;12.372;2023-08-06T03:58:59;8.73;;;4.38;;
36373;SDS011;22399;51.346;12.372;2023-08-06T04:01:27;7.53;;;3.15;;
36373;SDS011;22399;51.346;12.372;2023-08-06T04:03:56;9.77;;;3.20;;
36373;SDS011;22399;51.346;12.372;2023-08-06T04:06:26;7.57;;;3.47;;
36373;SDS011;22399;51.346;12.372;2023-08-06T04:08:54;7.30;;;3.33;;
36373;SDS011;22399;51.346;12.372;2023-08-06T04:11:23;12.85;;;3.58;;
36373;SDS011;22399;51.346;12.372;2023-08-06T04:13:51;9.23;;;2.80;;
36373;SDS011;22399;51.346;12.372;2023-08-06T04:16:23;6.85;;;3.25;;
36373;SDS011;22399;51.346;12.372;2023-08-06T04:18:53;8.43;;;3.75;;
36373;SDS011;22399;51.346;12.372;2023-08-06T04:21:23;7.72;;;2.85;;
36373;SDS011;22399;51.346;12.372;2023-08-06T04:23:53;7.68;;;3.45;;
36373;SDS011;22399;51.346;12.372;2023-08-06T04:26:21;10.82;;;3.53;;
36373;SDS011;22399;51.346;12.372;2023-08-06T04:28:50;11.30;;;3.38;;
36373;SDS011;22399;51.346;12.372;2023-08-06T04:31:19;10.15;;;3.15;;
36373;SDS011;22399;51.346;12.372;2023-08-06T04:33:49;8.63;;;3.50;;
36373;SDS011;22399;51.346;12.372;2023-08-06T04:36:18;4.28;;;2.47;;
36373;SDS011;22399;51.346;12.372;2023-08-06T04:38:46;6.47;;;3.10;;
36373;SDS011;22399;51.346;12.372;2023-08-06T04:41:16;7.47;;;3.33;;
36373;SDS011;22399;51.346;12.372;2023-08-06T04:43:45;5.85;;;2.72;;
36373;SDS011;22399;51.346;12.372;2023-08-06T04:46:14;5.85;;;2.67;;
36373;SDS011;22399;51.346;12.372;2023-08-06T04:48:42;12.60;;;2.83;;
36373;SDS011;22399;51.346;12.372;2023-08-06T04:51:11;6.43;;;2.85;;
36373;SDS011;22399;51.346;12.372;2023-08-06T04:53:40;13.60;;;3.05;;
36373;SDS011;22399;51.346;12.372;2023-08-06T04:56:09;6.70;;;2.72;;
36373;SDS011;22399;51.346;12.372;2023-08-06T04:58:39;4.28;;;2.22;;
36373;SDS011;22399;51.346;12.372;2023-08-06T05:01:07;3.60;;;2.08;;
36373;SDS011;22399;51.346;12.372;2023-08-06T05:03:35;11.20;;;2.45;;
36373;SDS011;22399;51.346;12.372;2023-08-06T05:06:04;8.35;;;2.10;;
36373;SDS011;22399;51.346;12.372;2023-08-06T05:08:32;3.80;;;1.80;;
36373;SDS011;22399;51.346;12.372;2023-08-06T05:11:01;3.88;;;1.88;;
36373;SDS011;22399;51.346;12.372;2023-08-06T05:13:30;7.80;;;1.35;;
36373;SDS011;22399;51.346;12.372;2023-08-06T05:15:59;5.82;;;1.58;;
36373;SDS011;22399;51.346;12.372;2023-08-06T05:18:28;4.82;;;1.80;;
36373;SDS011;22399;51.346;12.372;2023-08-06T05:23:34;2.00;;;1.10;;
36373;SDS011;22399;51.346;12.372;2023-08-06T05:26:03;2.83;;;1.40;;
36373;SDS011;22399;51.346;12.372;2023-08-06T05:28:31;5.75;;;1.42;;
36373;SDS011;22399;51.346;12.372;2023-08-06T05:31:04;2.10;;;1.17;;
36373;SDS011;22399;51.346;12.372;2023-08-06T05:33:32;2.05;;;1.42;;
36373;SDS011;22399;51.346;12.372;2023-08-06T05:36:00;3.88;;;1.58;;
36373;SDS011;22399;51.346;12.372;2023-08-06T05:38:29;2.72;;;1.52;;
36373;SDS011;22399;51.346;12.372;2023-08-06T05:40:58;2.08;;;1.30;;
36373;SDS011;22399;51.346;12.372;2023-08-06T05:43:26;6.60;;;1.60;;
36373;SDS011;22399;51.346;12.372;2023-08-06T05:45:55;2.53;;;1.52;;
36373;SDS011;22399;51.346;12.372;2023-08-06T05:48:25;3.47;;;1.23;;
36373;SDS011;22399;51.346;12.372;2023-08-06T05:50:54;4.55;;;1.27;;
36373;SDS011;22399;51.346;12.372;2023-08-06T05:53:23;3.60;;;1.40;;
36373;SDS011;22399;51.346;12.372;2023-08-06T05:55:51;1.98;;;1.17;;
36373;SDS011;22399;51.346;12.372;2023-08-06T05:58:20;2.17;;;1.20;;
36373;SDS011;22399;51.346;12.372;2023-08-06T06:00:50;3.75;;;1.35;;
36373;SDS011;22399;51.346;12.372;2023-08-06T06:03:19;4.88;;;1.27;;
36373;SDS011;22399;51.346;12.372;2023-08-06T06:05:49;1.70;;;0.88;;
36373;SDS011;22399;51.346;12.372;2023-08-06T06:08:18;2.90;;;0.98;;
36373;SDS011;22399;51.346;12.372;2023-08-06T06:10:46;1.85;;;1.00;;
36373;SDS011;22399;51.346;12.372;2023-08-06T06:13:14;1.77;;;1.05;;
36373;SDS011;22399;51.346;12.372;2023-08-06T06:15:43;2.08;;;1.00;;
36373;SDS011;22399;51.346;12.372;2023-08-06T06:18:11;3.10;;;1.02;;
36373;SDS011;22399;51.346;12.372;2023-08-06T06:20:40;2.13;;;0.90;;
36373;SDS011;22399;51.346;12.372;2023-08-06T06:23:10;1.05;;;0.65;;
36373;SDS011;22399;51.346;12.372;2023-08-06T06:25:41;1.48;;;1.10;;
36373;SDS011;22399;51.346;12.372;2023-08-06T06:28:10;3.88;;;1.08;;
36373;SDS011;22399;51.346;12.372;2023-08-06T06:30:38;1.33;;;1.00;;
36373;SDS011;22399;51.346;12.372;2023-08-06T06:33:07;2.20;;;1.10;;
36373;SDS011;22399;51.346;12.372;2023-08-06T06:35:36;1.42;;;0.98;;
36373;SDS011;22399;51.346;12.372;2023-08-06T06:38:05;2.22;;;0.95;;
36373;SDS011;22399;51.346;12.372;2023-08-06T06:40:34;4.78;;;0.98;;
36373;SDS011;22399;51.346;12.372;2023-08-06T06:43:03;4.00;;;0.98;;
36373;SDS011;22399;51.346;12.372;2023-08-06T06:45:32;1.75;;;0.75;;
36373;SDS011;22399;51.346;12.372;2023-08-06T06:48:01;0.88;;;0.70;;
36373;SDS011;22399;51.346;12.372;2023-08-06T06:50:29;2.65;;;1.13;;
36373;SDS011;22399;51.346;12.372;2023-08-06T06:52:58;1.70;;;0.85;;
36373;SDS011;22399;51.346;12.372;2023-08-06T06:55:26;8.63;;;1.02;;
36373;SDS011;22399;51.346;12.372;2023-08-06T06:57:56;2.83;;;1.17;;
36373;SDS011;22399;51.346;12.372;2023-08-06T07:00:25;3.25;;;1.25;;
36373;SDS011;22399;51.346;12.372;2023-08-06T07:02:54;1.35;;;0.63;;
36373;SDS011;22399;51.346;12.372;2023-08-06T07:05:22;1.02;;;0.80;;
36373;SDS011;22399;51.346;12.372;2023-08-06T07:07:51;3.20;;;0.80;;
36373;SDS011;22399;51.346;12.372;2023-08-06T07:10:20;2.80;;;1.20;;
36373;SDS011;22399;51.346;12.372;2023-08-06T07:12:48;2.60;;;1.10;;
36373;SDS011;22399;51.346;12.372;2023-08-06T07:15:18;2.22;;;1.00;;
36373;SDS011;22399;51.346;12.372;2023-08-06T07:17:46;2.72;;;1.08;;
36373;SDS011;22399;51.346;12.372;2023-08-06T07:20:15;2.53;;;1.10;;
36373;SDS011;22399;51.346;12.372;2023-08-06T07:22:44;2.58;;;1.40;;
36373;SDS011;22399;51.346;12.372;2023-08-06T07:25:12;2.65;;;1.02;;
36373;SDS011;22399;51.346;12.372;2023-08-06T07:27:40;4.65;;;1.00;;
36373;SDS011;22399;51.346;12.372;2023-08-06T07:30:09;6.97;;;1.38;;
36373;SDS011;22399;51.346;12.372;2023-08-06T07:32:39;3.25;;;1.58;;
36373;SDS011;22399;51.346;12.372;2023-08-06T07:35:08;1.85;;;1.00;;
36373;SDS011;22399;51.346;12.372;2023-08-06T07:37:39;3.45;;;1.35;;
36373;SDS011;22399;51.346;12.372;2023-08-06T07:40:08;3.10;;;1.40;;
36373;SDS011;22399;51.346;12.372;2023-08-06T07:42:38;2.03;;;1.27;;
36373;SDS011;22399;51.346;12.372;2023-08-06T07:45:06;2.22;;;0.80;;
36373;SDS011;22399;51.346;12.372;2023-08-06T07:47:36;3.53;;;1.45;;
36373;SDS011;22399;51.346;12.372;2023-08-06T07:50:06;2.88;;;1.48;;
36373;SDS011;22399;51.346;12.372;2023-08-06T07:52:36;2.08;;;1.08;;
36373;SDS011;22399;51.346;12.372;2023-08-06T07:55:04;5.57;;;1.20;;
36373;SDS011;22399;51.346;12.372;2023-08-06T07:57:33;2.22;;;1.40;;
36373;SDS011;22399;51.346;12.372;2023-08-06T08:00:02;1.70;;;1.23;;
36373;SDS011;22399;51.346;12.372;2023-08-06T08:02:38;1.33;;;0.82;;
36373;SDS011;22399;51.346;12.372;2023-08-06T08:05:08;3.55;;;1.08;;
36373;SDS011;22399;51.346;12.372;2023-08-06T08:07:37;1.13;;;0.70;;
36373;SDS011;22399;51.346;12.372;2023-08-06T08:10:06;1.38;;;1.00;;
36373;SDS011;22399;51.346;12.372;2023-08-06T08:12:35;5.70;;;1.60;;
36373;SDS011;22399;51.346;12.372;2023-08-06T08:15:04;3.17;;;1.15;;
36373;SDS011;22399;51.346;12.372;2023-08-06T08:17:33;5.40;;;1.33;;
36373;SDS011;22399;51.346;12.372;2023-08-06T08:20:01;1.90;;;0.88;;
36373;SDS011;22399;51.346;12.372;2023-08-06T08:22:32;1.75;;;1.00;;
36373;SDS011;22399;51.346;12.372;2023-08-06T08:25:00;4.43;;;0.77;;
36373;SDS011;22399;51.346;12.372;2023-08-06T08:27:29;2.20;;;0.90;;
36373;SDS011;22399;51.346;12.372;2023-08-06T08:29:58;2.58;;;1.33;;
36373;SDS011;22399;51.346;12.372;2023-08-06T08:32:27;2.42;;;1.13;;
36373;SDS011;22399;51.346;12.372;2023-08-06T08:34:55;2.95;;;1.27;;
36373;SDS011;22399;51.346;12.372;2023-08-06T08:37:24;2.85;;;1.20;;
36373;SDS011;22399;51.346;12.372;2023-08-06T08:39:53;3.47;;;1.10;;
36373;SDS011;22399;51.346;12.372;2023-08-06T08:42:22;1.95;;;1.15;;
36373;SDS011;22399;51.346;12.372;2023-08-06T08:44:51;1.13;;;0.90;;
36373;SDS011;22399;51.346;12.372;2023-08-06T08:47:22;1.77;;;1.02;;
36373;SDS011;22399;51.346;12.372;2023-08-06T08:49:52;2.72;;;0.70;;
36373;SDS011;22399;51.346;12.372;2023-08-06T08:52:23;4.32;;;1.40;;
36373;SDS011;22399;51.346;12.372;2023-08-06T08:54:54;1.83;;;1.25;;
36373;SDS011;22399;51.346;12.372;2023-08-06T08:57:24;1.65;;;1.10;;
36373;SDS011;22399;51.346;12.372;2023-08-06T08:59:52;1.35;;;0.65;;
36373;SDS011;22399;51.346;12.372;2023-08-06T09:02:21;2.58;;;0.90;;
36373;SDS011;22399;51.346;12.372;2023-08-06T09:04:52;2.38;;;0.90;;
36373;SDS011;22399;51.346;12.372;2023-08-06T09:07:22;2.20;;;0.65;;
36373;SDS011;22399;51.346;12.372;2023-08-06T09:09:51;1.58;;;0.93;;
36373;SDS011;22399;51.346;12.372;2023-08-06T09:12:23;1.58;;;0.80;;
36373;SDS011;22399;51.346;12.372;2023-08-06T09:14:51;1.65;;;1.10;;
36373;SDS011;22399;51.346;12.372;2023-08-06T09:17:20;1.13;;;0.73;;
36373;SDS011;22399;51.346;12.372;2023-08-06T09:19:48;2.78;;;1.10;;
36373;SDS011;22399;51.346;12.372;2023-08-06T09:22:17;2.33;;;0.80;;
36373;SDS011;22399;51.346;12.372;2023-08-06T09:24:46;1.20;;;0.60;;
36373;SDS011;22399;51.346;12.372;2023-08-06T09:27:16;0.90;;;0.70;;
36373;SDS011;22399;51.346;12.372;2023-08-06T09:29:45;1.13;;;0.73;;
36373;SDS011;22399;51.346;12.372;2023-08-06T09:32:14;8.02;;;1.00;;
36373;SDS011;22399;51.346;12.372;2023-08-06T09:34:43;0.90;;;0.52;;
36373;SDS011;22399;51.346;12.372;2023-08-06T09:37:11;4.68;;;1.55;;
36373;SDS011;22399;51.346;12.372;2023-08-06T09:39:40;1.67;;;0.75;;
36373;SDS011;22399;51.346;12.372;2023-08-06T09:42:09;0.85;;;0.77;;
36373;SDS011;22399;51.346;12.372;2023-08-06T09:44:39;1.27;;;0.70;;
36373;SDS011;22399;51.346;12.372;2023-08-06T09:47:08;4.68;;;0.95;;
36373;SDS011;22399;51.346;12.372;2023-08-06T09:49:40;0.82;;;0.80;;
36373;SDS011;22399;51.346;12.372;2023-08-06T09:52:12;2.65;;;1.02;;
36373;SDS011;22399;51.346;12.372;2023-08-06T09:54:43;0.82;;;0.70;;
36373;SDS011;22399;51.346;12.372;2023-08-06T09:57:12;2.13;;;1.17;;
36373;SDS011;22399;51.346;12.372;2023-08-06T09:59:43;3.38;;;0.90;;
36373;SDS011;22399;51.346;12.372;2023-08-06T10:02:14;2.47;;;0.93;;
36373;SDS011;22399;51.346;12.372;2023-08-06T10:04:43;1.88;;;0.80;;
36373;SDS011;22399;51.346;12.372;2023-08-06T10:07:21;1.80;;;0.95;;
36373;SDS011;22399;51.346;12.372;2023-08-06T10:09:51;1.75;;;0.90;;
36373;SDS011;22399;51.346;12.372;2023-08-06T10:12:20;1.58;;;0.82;;
36373;SDS011;22399;51.346;12.372;2023-08-06T10:14:52;0.77;;;0.60;;
36373;SDS011;22399;51.346;12.372;2023-08-06T10:17:23;2.08;;;0.70;;
36373;SDS011;22399;51.346;12.372;2023-08-06T10:20:10;3.15;;;0.70;;
36373;SDS011;22399;51.346;12.372;2023-08-06T10:22:42;1.30;;;0.80;;
36373;SDS011;22399;51.346;12.372;2023-08-06T10:25:13;2.65;;;1.23;;
36373;SDS011;22399;51.346;12.372;2023-08-06T10:27:53;1.92;;;0.52;;
36373;SDS011;22399;51.346;12.372;2023-08-06T10:30:25;1.55;;;0.70;;
36373;SDS011;22399;51.346;12.372;2023-08-06T10:32:55;2.03;;;0.90;;
36373;SDS011;22399;51.346;12.372;2023-08-06T10:35:27;1.42;;;0.70;;
36373;SDS011;22399;51.346;12.372;2023-08-06T10:37:59;2.60;;;0.85;;
36373;SDS011;22399;51.346;12.372;2023-08-06T10:40:32;1.55;;;0.77;;
36373;SDS011;22399;51.346;12.372;2023-08-06T10:43:01;3.25;;;0.65;;
36373;SDS011;22399;51.346;12.372;2023-08-06T10:45:31;3.42;;;1.02;;
36373;SDS011;22399;51.346;12.372;2023-08-06T10:48:02;1.00;;;0.70;;
36373;SDS011;22399;51.346;12.372;2023-08-06T10:50:31;1.65;;;0.93;;
36373;SDS011;22399;51.346;12.372;2023-08-06T10:53:03;1.13;;;0.73;;
36373;SDS011;22399;51.346;12.372;2023-08-06T10:55:33;8.63;;;0.77;;
36373;SDS011;22399;51.346;12.372;2023-08-06T10:58:02;1.40;;;0.77;;
36373;SDS011;22399;51.346;12.372;2023-08-06T11:00:32;1.42;;;0.90;;
36373;SDS011;22399;51.346;12.372;2023-08-06T11:03:01;1.27;;;0.82;;
36373;SDS011;22399;51.346;12.372;2023-08-06T11:05:31;0.82;;;0.70;;
36373;SDS011;22399;51.346;12.372;2023-08-06T11:08:00;1.05;;;0.75;;
36373;SDS011;22399;51.346;12.372;2023-08-06T11:10:28;2.17;;;0.55;;
36373;SDS011;22399;51.346;12.372;2023-08-06T11:13:00;2.25;;;0.93;;
36373;SDS011;22399;51.346;12.372;2023-08-06T11:15:29;2.78;;;0.77;;
36373;SDS011;22399;51.346;12.372;2023-08-06T11:17:59;2.00;;;0.70;;
36373;SDS011;22399;51.346;12.372;2023-08-06T11:20:29;1.10;;;0.65;;
36373;SDS011;22399;51.346;12.372;2023-08-06T11:22:57;1.58;;;0.60;;
36373;SDS011;22399;51.346;12.372;2023-08-06T11:25:26;1.58;;;0.95;;
36373;SDS011;22399;51.346;12.372;2023-08-06T11:27:55;1.77;;;0.82;;
36373;SDS011;22399;51.346;12.372;2023-08-06T11:30:24;1.88;;;0.95;;
36373;SDS011;22399;51.346;12.372;2023-08-06T11:32:56;2.08;;;0.70;;
36373;SDS011;22399;51.346;12.372;2023-08-06T11:35:24;1.90;;;0.70;;
36373;SDS011;22399;51.346;12.372;2023-08-06T11:37:53;3.35;;;0.60;;
36373;SDS011;22399;51.346;12.372;2023-08-06T11:40:21;1.67;;;0.82;;
36373;SDS011;22399;51.346;12.372;2023-08-06T11:42:50;1.15;;;0.80;;
36373;SDS011;22399;51.346;12.372;2023-08-06T11:45:21;4.20;;;0.90;;
36373;SDS011;22399;51.346;12.372;2023-08-06T11:47:50;1.38;;;0.80;;
36373;SDS011;22399;51.346;12.372;2023-08-06T11:50:24;5.68;;;0.75;;
36373;SDS011;22399;51.346;12.372;2023-08-06T11:52:54;1.02;;;0.77;;
36373;SDS011;22399;51.346;12.372;2023-08-06T11:55:24;1.75;;;0.73;;
36373;SDS011;22399;51.346;12.372;2023-08-06T11:57:55;2.42;;;0.73;;
36373;SDS011;22399;51.346;12.372;2023-08-06T12:00:24;2.33;;;0.85;;
36373;SDS011;22399;51.346;12.372;2023-08-06T12:02:54;3.70;;;0.90;;
36373;SDS011;22399;51.346;12.372;2023-08-06T12:05:28;3.30;;;1.05;;
36373;SDS011;22399;51.346;12.372;2023-08-06T12:08:00;2.42;;;0.88;;
36373;SDS011;22399;51.346;12.372;2023-08-06T12:10:30;0.93;;;0.68;;
36373;SDS011;22399;51.346;12.372;2023-08-06T12:12:59;0.60;;;0.50;;
36373;SDS011;22399;51.346;12.372;2023-08-06T12:15:29;2.03;;;0.60;;
36373;SDS011;22399;51.346;12.372;2023-08-06T12:17:59;1.98;;;0.80;;
36373;SDS011;22399;51.346;12.372;2023-08-06T12:20:29;1.90;;;0.63;;
36373;SDS011;22399;51.346;12.372;2023-08-06T12:22:58;0.93;;;0.70;;
36373;SDS011;22399;51.346;12.372;2023-08-06T12:25:26;1.42;;;0.85;;
36373;SDS011;22399;51.346;12.372;2023-08-06T12:27:55;1.38;;;0.68;;
36373;SDS011;22399;51.346;12.372;2023-08-06T12:30:24;2.38;;;0.95;;
36373;SDS011;22399;51.346;12.372;2023-08-06T12:32:53;2.33;;;0.90;;
36373;SDS011;22399;51.346;12.372;2023-08-06T12:35:21;2.20;;;0.65;;
36373;SDS011;22399;51.346;12.372;2023-08-06T12:37:53;1.42;;;0.60;;
36373;SDS011;22399;51.346;12.372;2023-08-06T12:40:24;0.75;;;0.45;;
36373;SDS011;22399;51.346;12.372;2023-08-06T12:43:04;1.05;;;0.50;;
36373;SDS011;22399;51.346;12.372;2023-08-06T12:45:32;2.30;;;0.50;;
36373;SDS011;22399;51.346;12.372;2023-08-06T12:48:01;0.88;;;0.55;;
36373;SDS011;22399;51.346;12.372;2023-08-06T12:50:30;0.70;;;0.50;;
36373;SDS011;22399;51.346;12.372;2023-08-06T12:53:01;0.43;;;0.40;;
36373;SDS011;22399;51.346;12.372;2023-08-06T12:55:31;6.07;;;0.55;;
36373;SDS011;22399;51.346;12.372;2023-08-06T12:58:00;1.13;;;0.45;;
36373;SDS011;22399;51.346;12.372;2023-08-06T13:00:28;1.42;;;0.88;;
36373;SDS011;22399;51.346;12.372;2023-08-06T13:02:57;5.05;;;0.70;;
36373;SDS011;22399;51.346;12.372;2023-08-06T13:05:25;1.83;;;0.63;;
36373;SDS011;22399;51.346;12.372;2023-08-06T13:07:54;3.65;;;0.82;;
36373;SDS011;22399;51.346;12.372;2023-08-06T13:10:24;2.15;;;0.88;;
36373;SDS011;22399;51.346;12.372;2023-08-06T13:12:53;3.33;;;1.27;;
36373;SDS011;22399;51.346;12.372;2023-08-06T13:15:22;5.82;;;1.00;;
36373;SDS011;22399;51.346;12.372;2023-08-06T13:17:50;4.22;;;1.25;;
36373;SDS011;22399;51.346;12.372;2023-08-06T13:20:19;2.35;;;1.10;;
36373;SDS011;22399;51.346;12.372;2023-08-06T13:22:49;2.22;;;0.82;;
36373;SDS011;22399;51.346;12.372;2023-08-06T13:25:20;1.65;;;0.75;;
36373;SDS011;22399;51.346;12.372;2023-08-06T13:27:51;2.47;;;0.63;;
36373;SDS011;22399;51.346;12.372;2023-08-06T13:30:21;11.75;;;0.70;;
36373;SDS011;22399;51.346;12.372;2023-08-06T13:32:49;3.20;;;0.77;;
36373;SDS011;22399;51.346;12.372;2023-08-06T13:35:18;2.35;;;1.00;;
36373;SDS011;22399;51.346;12.372;2023-08-06T13:37:47;2.55;;;0.50;;
36373;SDS011;22399;51.346;12.372;2023-08-06T13:40:16;2.05;;;0.90;;
36373;SDS011;22399;51.346;12.372;2023-08-06T13:42:45;3.13;;;0.60;;
36373;SDS011;22399;51.346;12.372;2023-08-06T13:45:15;5.32;;;0.80;;
36373;SDS011;22399;51.346;12.372;2023-08-06T13:47:43;5.57;;;0.82;;
36373;SDS011;22399;51.346;12.372;2023-08-06T13:50:12;0.35;;;0.35;;
36373;SDS011;22399;51.346;12.372;2023-08-06T13:52:40;1.92;;;0.55;;
36373;SDS011;22399;51.346;12.372;2023-08-06T13:55:09;3.00;;;0.70;;
36373;SDS011;22399;51.346;12.372;2023-08-06T13:57:37;0.50;;;0.50;;
36373;SDS011;22399;51.346;12.372;2023-08-06T14:00:06;1.88;;;1.08;;
36373;SDS011;22399;51.346;12.372;2023-08-06T14:02:40;2.40;;;0.90;;
36373;SDS011;22399;51.346;12.372;2023-08-06T14:05:10;6.15;;;0.60;;
36373;SDS011;22399;51.346;12.372;2023-08-06T14:07:39;0.90;;;0.50;;
36373;SDS011;22399;51.346;12.372;2023-08-06T14:10:08;3.72;;;0.47;;
36373;SDS011;22399;51.346;12.372;2023-08-06T14:12:36;2.17;;;0.70;;
36373;SDS011;22399;51.346;12.372;2023-08-06T14:15:05;1.10;;;0.50;;
36373;SDS011;22399;51.346;12.372;2023-08-06T14:17:34;1.45;;;0.50;;
36373;SDS011;22399;51.346;12.372;2023-08-06T14:20:04;0.90;;;0.60;;
36373;SDS011;22399;51.346;12.372;2023-08-06T14:22:35;1.65;;;0.85;;
36373;SDS011;22399;51.346;12.372;2023-08-06T14:25:04;5.90;;;0.57;;
36373;SDS011;22399;51.346;12.372;2023-08-06T14:27:34;1.42;;;0.68;;
36373;SDS011;22399;51.346;12.372;2023-08-06T14:30:03;1.05;;;0.50;;
36373;SDS011;22399;51.346;12.372;2023-08-06T14:32:32;3.47;;;0.70;;
36373;SDS011;22399;51.346;12.372;2023-08-06T14:35:01;2.25;;;0.80;;
36373;SDS011;22399;51.346;12.372;2023-08-06T14:37:32;1.35;;;0.70;;
36373;SDS011;22399;51.346;12.372;2023-08-06T14:40:01;1.20;;;0.55;;
36373;SDS011;22399;51.346;12.372;2023-08-06T14:42:30;11.45;;;0.90;;
36373;SDS011;22399;51.346;12.372;2023-08-06T14:44:58;2.05;;;0.70;;
36373;SDS011;22399;51.346;12.372;2023-08-06T14:47:26;1.15;;;0.50;;
36373;SDS011;22399;51.346;12.372;2023-08-06T14:49:55;0.63;;;0.40;;
36373;SDS011;22399;51.346;12.372;2023-08-06T14:52:24;1.67;;;0.50;;